KGSP/GSP METAR and TAF weather

Enter ICAO airport designator
Station Type Date Time Source
KGSP METAR 2018/12/19 08:53 UTC NOAA

KGSP 190853Z 36003KT 10SM CLR 03/M01 A3014 RMK AO2 SLP206 T00331006 58002


Station Type Date Time Source
KGSP Decoded METAR 2018/12/19 08:53 UTC NOAA

GREER GREENVILLE SPARTBURG, SC, United States (KGSP) 34-53N 82-13W 286M
Dec 19, 2018 - 03:53 AM EST / 2018.12.19 0853 UTC
Wind: from the N (360 degrees) at 3 MPH (3 KT):0
Visibility: 10 mile(s):0
Sky conditions: clear
Temperature: 37.9 F (3.3 C)
Dew Point: 30.9 F (-0.6 C)
Relative Humidity: 75%
Pressure (altimeter): 30.14 in. Hg (1020 hPa)
Pressure tendency: 0.01 inches (0.2 hPa) lower than three hours ago
ob: KGSP 190853Z 36003KT 10SM CLR 03/M01 A3014 RMK AO2 SLP206 T00331006 58002
cycle: 9

Station Type Date Time Source
KGSP TAF 2018/12/19 06:22 UTC NOAA

TAF KGSP 190520Z 1906/2006 05004KT P6SM BKN200
FM191700 08004KT P6SM BKN100
FM200300 03003KT P6SM BKN050
FM200500 03004KT P6SM BKN020


Example: see airport list